Time;durP1;ratioP1;P1;durP2;ratioP2;P2;SDS_P1;SDS_P2;PMS_P1;PMS_P2;Temp;Humidity;BMP_temperature;BMP_pressure;BME280_temperature;BME280_humidity;BME280_pressure;Samples;Min_cycle;Max_cycle;Signal;HPM_P1;HPM_P2
2022/03/20 00:01:14;;;;;;;5.82;3.95;;;;;;;-4.39;53.11;96828.47;5029053;28;20480;-66
2022/03/20 00:03:40;;;;;;;6.45;4.07;;;;;;;-4.40;53.11;96834.38;5030821;28;20495;-66
2022/03/20 00:06:05;;;;;;;6.78;3.65;;;;;;;-4.35;52.61;96832.72;5029127;28;20464;-66
2022/03/20 00:08:31;;;;;;;5.13;3.47;;;;;;;-4.43;52.93;96826.72;5029318;28;20030;-66
2022/03/20 00:10:59;;;;;;;5.10;3.55;;;;;;;-4.39;52.75;96836.94;5012632;28;20033;-66
2022/03/20 00:13:25;;;;;;;8.35;3.70;;;;;;;-4.32;52.96;96842.88;5029299;28;20454;-66
2022/03/20 00:15:51;;;;;;;5.85;3.58;;;;;;;-4.36;52.98;96839.50;5029084;28;20022;-66
2022/03/20 00:18:17;;;;;;;5.43;3.90;;;;;;;-4.43;53.03;96834.34;4996250;28;20136;-66
2022/03/20 00:20:49;;;;;;;5.95;3.90;;;;;;;-4.51;52.85;96831.78;5013196;28;20419;-66
2022/03/20 00:23:16;;;;;;;4.95;3.50;;;;;;;-4.51;53.15;96840.22;5032810;28;20044;-66
2022/03/20 00:25:42;;;;;;;7.85;3.97;;;;;;;-4.56;53.59;96831.72;5033582;28;20025;-66
2022/03/20 00:28:08;;;;;;;7.85;3.88;;;;;;;-4.53;52.69;96820.75;5032668;28;20048;-66
2022/03/20 00:30:34;;;;;;;5.88;4.25;;;;;;;-4.55;53.03;96825.81;5016063;28;20041;-67
2022/03/20 00:32:59;;;;;;;6.30;4.45;;;;;;;-4.56;52.28;96823.28;5015928;28;20504;-66
2022/03/20 00:35:25;;;;;;;5.70;3.80;;;;;;;-4.56;52.49;96830.88;5032354;28;20435;-66
2022/03/20 00:37:50;;;;;;;6.60;3.65;;;;;;;-4.57;52.51;96832.56;5032242;28;20404;-66
2022/03/20 00:40:16;;;;;;;8.13;3.78;;;;;;;-4.64;52.61;96805.44;5032267;28;20418;-66
2022/03/20 00:42:41;;;;;;;6.95;4.13;;;;;;;-4.50;52.50;96826.69;5032278;28;20025;-66
2022/03/20 00:45:07;;;;;;;5.35;3.63;;;;;;;-4.44;52.24;96825.03;5015611;28;20447;-66
2022/03/20 00:47:32;;;;;;;6.07;3.80;;;;;;;-4.45;52.56;96828.44;5015773;28;20326;-66
2022/03/20 00:49:58;;;;;;;4.18;3.42;;;;;;;-4.52;52.64;96825.81;5033384;28;20022;-66
2022/03/20 00:52:23;;;;;;;5.85;3.97;;;;;;;-4.50;52.62;96828.38;5031939;28;20032;-66
2022/03/20 00:54:49;;;;;;;5.65;3.80;;;;;;;-4.52;52.99;96828.34;5032077;28;20044;-66
2022/03/20 00:57:14;;;;;;;6.75;3.75;;;;;;;-4.51;52.74;96817.41;5031926;28;20033;-66
2022/03/20 00:59:40;;;;;;;7.00;4.00;;;;;;;-4.44;52.56;96817.44;5035490;28;20036;-66
2022/03/20 01:02:05;;;;;;;7.40;4.05;;;;;;;-4.45;52.63;96825.91;5051667;28;20131;-66
2022/03/20 01:04:31;;;;;;;5.80;4.10;;;;;;;-4.51;52.25;96817.41;5051648;28;20032;-66
2022/03/20 01:07:00;;;;;;;7.00;3.90;;;;;;;-4.43;52.11;96826.72;5035026;28;20045;-66
2022/03/20 01:09:26;;;;;;;6.40;4.07;;;;;;;-4.37;53.16;96824.28;5051619;28;20033;-66
2022/03/20 01:11:51;;;;;;;8.07;4.93;;;;;;;-4.30;53.21;96824.31;5051463;28;20078;-66
2022/03/20 01:14:17;;;;;;;6.70;4.28;;;;;;;-4.41;53.00;96818.28;5051627;28;20112;-66
2022/03/20 01:16:42;;;;;;;7.97;4.55;;;;;;;-4.33;54.34;96826.81;5051449;28;20062;-66
2022/03/20 01:19:07;;;;;;;7.40;4.10;;;;;;;-4.43;54.20;96819.13;5051277;28;20049;-66
2022/03/20 01:21:33;;;;;;;6.25;4.13;;;;;;;-4.46;54.50;96819.09;5052620;28;20033;-66
2022/03/20 01:23:58;;;;;;;5.57;3.83;;;;;;;-4.58;54.79;96815.63;5052633;28;20047;-66
2022/03/20 01:26:24;;;;;;;6.25;3.85;;;;;;;-4.61;55.51;96823.22;5051193;28;20509;-67
2022/03/20 01:28:49;;;;;;;6.15;4.10;;;;;;;-4.67;56.05;96820.63;5051316;28;20079;-66
2022/03/20 01:31:15;;;;;;;6.03;4.30;;;;;;;-4.71;55.60;96821.44;5051175;28;20024;-66
2022/03/20 01:33:41;;;;;;;6.38;4.18;;;;;;;-4.71;54.84;96806.22;5033823;28;20120;-66
2022/03/20 01:36:06;;;;;;;6.55;4.45;;;;;;;-4.66;55.52;96817.25;5050053;28;20036;-66
2022/03/20 01:38:32;;;;;;;5.05;3.97;;;;;;;-4.71;54.74;96811.28;5018069;28;20029;-66
2022/03/20 01:41:00;;;;;;;6.47;4.07;;;;;;;-4.83;54.96;96798.50;5050955;28;20029;-66
2022/03/20 01:43:25;;;;;;;7.30;4.10;;;;;;;-4.74;54.99;96814.66;5052595;28;20498;-66
2022/03/20 01:45:50;;;;;;;6.18;4.38;;;;;;;-4.70;54.57;96827.38;5050868;28;20032;-66
2022/03/20 01:48:16;;;;;;;6.00;4.13;;;;;;;-4.86;54.80;96806.94;5050960;28;20059;-66
2022/03/20 01:50:41;;;;;;;6.53;4.57;;;;;;;-4.74;55.07;96823.94;5034222;28;20036;-66
2022/03/20 01:53:07;;;;;;;7.43;4.68;;;;;;;-4.80;55.54;96829.81;5034322;28;20033;-66
2022/03/20 01:55:33;;;;;;;7.70;5.00;;;;;;;-4.80;54.37;96828.97;5034214;28;20037;-67
2022/03/20 01:57:58;;;;;;;7.78;5.28;;;;;;;-4.85;54.40;96833.16;5017695;28;20044;-66
2022/03/20 02:00:25;;;;;;;8.88;5.45;;;;;;;-4.86;54.54;96826.38;5043319;28;20538;-66
2022/03/20 02:02:51;;;;;;;6.82;4.95;;;;;;;-4.87;55.16;96829.78;5032139;28;20053;-66
2022/03/20 02:05:16;;;;;;;6.28;4.80;;;;;;;-4.87;54.88;96830.63;5031735;28;20069;-67
2022/03/20 02:07:42;;;;;;;6.03;4.43;;;;;;;-4.88;55.26;96825.50;5014223;28;20038;-66
2022/03/20 02:10:08;;;;;;;7.78;4.47;;;;;;;-4.94;54.68;96822.06;5014089;28;20489;-67
2022/03/20 02:12:34;;;;;;;6.97;4.75;;;;;;;-4.92;55.33;96829.72;5030497;28;20052;-66
2022/03/20 02:15:02;;;;;;;7.05;4.93;;;;;;;-4.94;54.86;96823.78;4997700;28;20122;-66
2022/03/20 02:17:30;;;;;;;7.68;4.95;;;;;;;-5.03;54.73;96836.38;5014244;28;20506;-66
2022/03/20 02:19:58;;;;;;;9.98;4.75;;;;;;;-5.07;54.77;96832.97;4997860;28;20522;-66
2022/03/20 02:22:24;;;;;;;6.97;4.53;;;;;;;-5.09;54.53;96827.00;5030329;28;20068;-66
2022/03/20 02:24:51;;;;;;;7.03;4.32;;;;;;;-5.20;55.19;96823.53;5013913;28;20040;-67
2022/03/20 02:27:22;;;;;;;5.32;4.07;;;;;;;-5.18;55.25;96821.88;5030343;28;20111;-66
2022/03/20 02:29:48;;;;;;;8.90;4.07;;;;;;;-5.14;55.28;96828.66;5014586;28;20087;-66
2022/03/20 02:32:14;;;;;;;6.10;4.30;;;;;;;-5.12;55.23;96816.84;5030235;28;20139;-66
2022/03/20 02:34:40;;;;;;;6.93;4.15;;;;;;;-5.13;55.63;96817.66;5013776;28;20400;-67
2022/03/20 02:37:06;;;;;;;7.13;4.20;;;;;;;-5.20;55.26;96809.16;5031030;28;20099;-66
2022/03/20 02:39:31;;;;;;;5.30;4.03;;;;;;;-5.16;55.46;96817.63;5035133;28;20040;-66
2022/03/20 02:42:00;;;;;;;5.22;3.97;;;;;;;-5.07;55.33;96810.16;5024216;28;20033;-66
2022/03/20 02:44:52;;;;;;;8.55;4.47;;;;;;;-5.11;55.23;96812.63;5017373;28;20539;-66
2022/03/20 02:47:20;;;;;;;6.05;3.83;;;;;;;-5.18;54.84;96804.97;5044872;28;20032;-66
2022/03/20 02:49:49;;;;;;;6.88;4.50;;;;;;;-5.17;55.20;96815.94;5037498;28;20059;-66
2022/03/20 02:52:14;;;;;;;5.47;3.80;;;;;;;-5.24;55.34;96819.25;5044672;28;20042;-66
2022/03/20 02:54:39;;;;;;;6.10;4.53;;;;;;;-5.25;55.40;96810.78;5032465;28;20033;-66
2022/03/20 02:57:08;;;;;;;6.45;4.20;;;;;;;-5.30;55.20;96806.50;5047663;28;20033;-66
2022/03/20 02:59:34;;;;;;;6.35;4.20;;;;;;;-5.36;55.61;96821.66;5038539;28;20037;-66
2022/03/20 03:02:00;;;;;;;6.43;4.63;;;;;;;-5.40;55.41;96811.47;5036911;28;20044;-66
2022/03/20 03:04:26;;;;;;;6.10;4.20;;;;;;;-5.46;55.65;96806.34;4996898;28;20025;-66
2022/03/20 03:06:51;;;;;;;7.28;4.43;;;;;;;-5.39;55.45;96805.56;5029553;28;20060;-66
2022/03/20 03:12:04;;;;;;;5.13;3.38;;;;;;;-5.35;55.05;96814.03;5030877;28;20048;-66
2022/03/20 03:17:13;;;;;;;5.90;3.88;;;;;;;-5.29;55.22;96818.34;5031100;28;20076;-66
2022/03/20 03:19:39;;;;;;;8.63;4.50;;;;;;;-5.24;55.33;96816.69;5013165;28;20053;-66
2022/03/20 03:22:04;;;;;;;7.18;4.18;;;;;;;-5.17;55.64;96813.41;5029463;28;20480;-66
2022/03/20 03:24:30;;;;;;;7.20;4.03;;;;;;;-5.14;55.42;96807.53;5030956;28;20033;-66
2022/03/20 03:26:55;;;;;;;6.43;4.50;;;;;;;-5.13;55.39;96810.06;5029505;28;20045;-66
2022/03/20 03:29:20;;;;;;;6.85;4.40;;;;;;;-5.25;55.42;96812.47;5030707;28;20037;-66
2022/03/20 03:31:46;;;;;;;5.88;3.67;;;;;;;-5.20;54.91;96808.31;5029560;28;20088;-66
2022/03/20 03:36:55;;;;;;;7.38;3.95;;;;;;;-5.27;55.01;96812.44;5030684;28;20041;-66
2022/03/20 03:39:22;;;;;;;6.25;4.20;;;;;;;-5.41;55.01;96799.63;5030596;28;20419;-66
2022/03/20 03:41:50;;;;;;;5.03;3.90;;;;;;;-5.29;55.05;96814.13;5029258;28;20034;-66
2022/03/20 03:44:17;;;;;;;11.45;6.45;;;;;;;-5.26;55.43;96819.25;5029161;28;20124;-66
2022/03/20 03:46:42;;;;;;;14.93;9.00;;;;;;;-5.24;56.18;96822.66;5029346;28;20030;-66
2022/03/20 03:49:07;;;;;;;17.25;9.93;;;;;;;-5.20;56.67;96823.53;5029357;28;20546;-66
2022/03/20 03:51:33;;;;;;;14.82;9.32;;;;;;;-5.21;57.03;96824.34;5029234;28;20484;-66
2022/03/20 03:53:58;;;;;;;11.45;8.02;;;;;;;-5.17;56.28;96832.00;5029377;28;20584;-66
2022/03/20 03:56:24;;;;;;;11.65;7.85;;;;;;;-5.23;56.81;96829.41;5032090;28;20079;-66
2022/03/20 03:58:49;;;;;;;9.55;6.95;;;;;;;-5.29;56.99;96828.47;5034559;28;20037;-66
2022/03/20 04:01:14;;;;;;;7.95;4.97;;;;;;;-5.44;55.70;96824.94;5032874;28;20403;-66
2022/03/20 04:03:40;;;;;;;6.70;4.20;;;;;;;-5.45;55.48;96820.72;5033329;28;20037;-66
2022/03/20 04:06:06;;;;;;;6.50;4.53;;;;;;;-5.51;56.14;96817.28;5034015;28;20492;-66
2022/03/20 04:08:32;;;;;;;7.05;4.57;;;;;;;-5.50;55.61;96822.34;5032987;28;20029;-66
2022/03/20 04:10:58;;;;;;;14.95;9.90;;;;;;;-5.55;56.59;96815.50;5016549;28;20061;-66
2022/03/20 04:13:23;;;;;;;14.40;10.25;;;;;;;-5.52;57.34;96815.56;5032655;28;20064;-66
2022/03/20 04:15:48;;;;;;;16.00;9.13;;;;;;;-5.54;57.51;96818.09;5032767;28;20091;-66
2022/03/20 04:18:15;;;;;;;14.35;9.27;;;;;;;-5.65;58.18;96817.09;5034093;28;20053;-66
2022/03/20 04:20:43;;;;;;;13.05;8.82;;;;;;;-5.60;57.53;96823.06;5032719;28;20057;-66
2022/03/20 04:25:52;;;;;;;14.55;8.63;;;;;;;-5.86;58.73;96827.81;5032678;28;20036;-66
2022/03/20 04:28:21;;;;;;;10.02;7.07;;;;;;;-5.93;58.18;96836.19;5033625;28;20038;-66
2022/03/20 04:30:48;;;;;;;11.38;7.53;;;;;;;-6.11;58.95;96839.31;5032522;28;20103;-66
2022/03/20 04:33:14;;;;;;;13.23;7.72;;;;;;;-6.19;59.39;96838.34;5033579;28;20030;-66
2022/03/20 04:35:39;;;;;;;15.25;7.90;;;;;;;-6.19;59.50;96833.28;5032454;28;20139;-65
2022/03/20 04:38:04;;;;;;;11.60;7.90;;;;;;;-6.18;59.62;96837.53;5032441;28;20030;-66
2022/03/20 04:40:30;;;;;;;16.35;9.65;;;;;;;-6.22;60.05;96841.66;5032349;28;20048;-66
2022/03/20 04:42:55;;;;;;;12.77;7.25;;;;;;;-6.20;59.24;96842.56;5032403;28;20411;-66
2022/03/20 04:45:21;;;;;;;21.23;10.80;;;;;;;-6.39;59.55;96838.06;5033413;28;20059;-66
2022/03/20 04:58:47;;;;;;;10.40;5.78;;;;;;;-6.61;60.60;96847.81;5041191;28;20046;-66
2022/03/20 05:01:12;;;;;;;10.40;6.05;;;;;;;-6.60;61.13;96843.59;5046856;28;20051;-66
2022/03/20 05:03:38;;;;;;;10.88;6.25;;;;;;;-6.60;61.73;96841.94;5016508;28;20041;-66
2022/03/20 05:06:05;;;;;;;10.48;5.82;;;;;;;-6.49;60.71;96854.78;5016468;28;20033;-65
2022/03/20 05:08:31;;;;;;;12.02;7.15;;;;;;;-6.66;60.92;96843.50;5043150;28;20033;-65
2022/03/20 05:13:41;;;;;;;10.10;5.35;;;;;;;-6.58;62.19;96847.03;5062742;28;20125;-65
2022/03/20 05:16:08;;;;;;;8.27;5.32;;;;;;;-6.53;61.17;96853.84;5044592;28;20475;-65
2022/03/20 05:18:36;;;;;;;11.45;7.20;;;;;;;-6.55;61.19;96847.94;5051074;28;20589;-65
2022/03/20 05:21:05;;;;;;;9.80;5.72;;;;;;;-6.55;61.54;96853.00;5049938;28;20025;-66
2022/03/20 05:23:40;;;;;;;10.65;6.22;;;;;;;-6.46;61.76;96859.88;5047683;28;20139;-67
2022/03/20 05:26:06;;;;;;;8.43;5.80;;;;;;;-6.25;62.45;96854.28;5045709;28;20037;-66
2022/03/20 05:28:32;;;;;;;8.48;6.10;;;;;;;-6.25;62.24;96855.97;5049285;28;20529;-66
2022/03/20 05:30:57;;;;;;;6.32;4.68;;;;;;;-6.28;62.19;96855.94;5048239;28;20064;-66
2022/03/20 05:33:23;;;;;;;8.68;4.68;;;;;;;-6.22;62.50;96856.84;5020125;28;20426;-66
2022/03/20 05:35:48;;;;;;;8.32;5.15;;;;;;;-5.86;62.54;96870.84;5031995;28;20036;-66
2022/03/20 05:38:13;;;;;;;5.53;3.92;;;;;;;-5.62;62.05;96870.31;5029314;28;20036;-66
2022/03/20 05:40:40;;;;;;;6.75;4.03;;;;;;;-5.41;61.38;96857.06;5029643;28;20042;-66
2022/03/20 05:43:08;;;;;;;4.97;3.88;;;;;;;-5.29;62.18;96863.94;5038862;28;20048;-66
2022/03/20 05:45:34;;;;;;;6.50;3.78;;;;;;;-5.02;62.75;96868.47;5048624;28;20511;-66
2022/03/20 05:47:59;;;;;;;8.88;4.90;;;;;;;-4.50;58.80;96861.38;5047662;28;20033;-66
2022/03/20 05:50:25;;;;;;;17.00;8.88;;;;;;;-4.03;57.13;96863.41;5049658;28;20075;-66
2022/03/20 05:52:52;;;;;;;15.23;8.80;;;;;;;-3.43;56.48;96866.28;5048733;28;20116;-66
2022/03/20 05:55:18;;;;;;;14.43;7.95;;;;;;;-2.69;54.15;96864.81;5020636;28;20579;-66
2022/03/20 05:58:01;;;;;;;15.57;8.15;;;;;;;-2.23;52.46;96871.63;5008444;28;20033;-66
2022/03/20 06:00:27;;;;;;;14.48;7.78;;;;;;;-1.81;51.56;96861.41;5042209;28;20033;-66
2022/03/20 06:02:53;;;;;;;13.52;8.15;;;;;;;-1.40;51.32;96867.25;5047294;28;20423;-66
2022/03/20 06:05:18;;;;;;;14.35;7.80;;;;;;;-0.91;50.03;96875.53;5027970;28;20052;-67
2022/03/20 06:07:46;;;;;;;27.60;14.40;;;;;;;-0.51;46.98;96866.81;5044886;28;20110;-67
2022/03/20 06:10:12;;;;;;;25.45;14.35;;;;;;;-0.20;44.75;96869.97;5047101;28;20064;-66
2022/03/20 06:12:38;;;;;;;26.15;14.27;;;;;;;0.01;45.47;96865.56;5041763;28;20033;-66
2022/03/20 06:15:04;;;;;;;33.33;19.10;;;;;;;0.34;43.85;96872.91;5059976;28;20033;-67
2022/03/20 06:17:29;;;;;;;28.95;15.90;;;;;;;0.69;42.97;96861.44;5030606;28;20037;-66
2022/03/20 06:19:55;;;;;;;25.05;15.48;;;;;;;0.99;42.24;96869.63;5047873;28;20470;-66
2022/03/20 06:22:21;;;;;;;32.13;19.15;;;;;;;1.55;39.73;96868.84;5046692;28;20257;-66
2022/03/20 06:24:46;;;;;;;30.83;17.45;;;;;;;1.75;39.77;96870.25;5046582;28;20071;-66
2022/03/20 06:27:12;;;;;;;35.72;19.63;;;;;;;1.90;39.30;96864.91;5047939;28;20430;-66
2022/03/20 06:29:37;;;;;;;44.40;24.05;;;;;;;1.93;40.96;96876.81;5030491;28;20048;-66
2022/03/20 06:32:03;;;;;;;54.88;26.95;;;;;;;2.01;39.82;96869.84;5050147;28;20036;-67
2022/03/20 06:34:28;;;;;;;63.00;28.67;;;;;;;2.10;39.04;96872.25;5027328;28;20025;-67
2022/03/20 06:36:57;;;;;;;27.45;14.05;;;;;;;2.40;37.71;96872.59;5038151;28;20542;-66
2022/03/20 06:39:23;;;;;;;19.92;11.88;;;;;;;2.47;37.23;96876.75;5043875;28;20116;-67
2022/03/20 06:41:48;;;;;;;31.60;16.77;;;;;;;2.36;36.50;96878.66;5013373;28;20082;-67
2022/03/20 06:44:15;;;;;;;22.25;13.85;;;;;;;2.27;36.60;96873.69;5046217;28;20457;-67
2022/03/20 06:46:41;;;;;;;18.88;11.00;;;;;;;2.43;35.88;96875.13;5041354;28;20094;-67
2022/03/20 06:49:08;;;;;;;16.55;9.50;;;;;;;2.56;35.61;96868.88;5043025;28;20082;-67
2022/03/20 06:51:34;;;;;;;14.00;8.82;;;;;;;2.39;35.25;96873.47;5045806;28;20044;-67
2022/03/20 06:53:59;;;;;;;13.48;8.55;;;;;;;2.39;35.27;96876.03;5045070;28;20079;-66
2022/03/20 06:56:27;;;;;;;13.88;8.88;;;;;;;2.59;36.01;96879.09;5038238;28;20029;-66
2022/03/20 06:58:52;;;;;;;18.25;11.15;;;;;;;2.78;35.44;96873.59;5046507;28;20034;-66
2022/03/20 07:01:18;;;;;;;67.38;32.42;;;;;;;2.79;34.81;96875.31;5047601;28;20029;-66
2022/03/20 07:03:43;;;;;;;44.63;21.23;;;;;;;2.89;34.60;96880.19;5044968;28;20013;-66
2022/03/20 07:06:09;;;;;;;21.65;11.98;;;;;;;2.99;34.97;96872.34;5040908;28;20465;-67
2022/03/20 07:08:34;;;;;;;10.05;6.82;;;;;;;2.81;33.84;96865.84;5045995;28;20025;-69
2022/03/20 07:11:00;;;;;;;11.68;7.43;;;;;;;2.79;33.70;96875.31;5039358;28;20049;-69
2022/03/20 07:16:09;;;;;;;7.28;5.25;;;;;;;2.87;33.58;96881.09;5026387;28;20423;-69
2022/03/20 07:18:34;;;;;;;12.93;6.55;;;;;;;2.63;34.35;96873.03;5005815;28;20049;-69
2022/03/20 07:21:00;;;;;;;13.77;8.55;;;;;;;2.77;34.22;96882.19;5037106;28;20033;-67
2022/03/20 07:23:26;;;;;;;6.40;4.97;;;;;;;2.65;34.48;96866.16;5038523;28;20025;-72
2022/03/20 07:31:19;;;;;;;12.90;9.05;;;;;;;2.35;35.41;96877.81;5048091;28;20275;-68
2022/03/20 07:33:44;;;;;;;9.90;7.03;;;;;;;2.26;34.83;96874.53;5027168;28;20242;-68
2022/03/20 07:36:10;;;;;;;11.05;8.82;;;;;;;2.20;35.53;96872.94;5033641;28;20040;-68
2022/03/20 07:38:35;;;;;;;25.42;18.05;;;;;;;2.38;35.42;96876.91;5039250;28;20028;-69
2022/03/20 07:41:01;;;;;;;9.50;5.60;;;;;;;2.65;34.38;96880.69;5046366;28;20043;-69
2022/03/20 07:43:26;;;;;;;11.23;5.80;;;;;;;2.68;34.93;96873.78;5030803;28;20021;-68
2022/03/20 07:45:52;;;;;;;9.25;6.47;;;;;;;2.75;34.61;96871.09;5026115;28;20025;-68
2022/03/20 07:48:21;;;;;;;14.93;10.00;;;;;;;2.76;35.23;96862.50;5049929;28;20078;-70
2022/03/20 07:50:47;;;;;;;10.65;7.28;;;;;;;2.83;34.02;96864.09;5050372;28;20175;-70
2022/03/20 07:53:12;;;;;;;11.23;6.47;;;;;;;2.83;34.33;96864.09;5047441;28;20025;-69
2022/03/20 07:55:38;;;;;;;9.27;6.40;;;;;;;2.78;34.42;96863.31;5034084;28;20033;-69
2022/03/20 07:58:04;;;;;;;12.25;8.45;;;;;;;2.73;34.85;96863.44;5052915;28;20044;-69
2022/03/20 08:00:29;;;;;;;10.60;7.40;;;;;;;2.71;34.63;96852.34;5045190;28;20044;-68
2022/03/20 08:02:55;;;;;;;9.32;6.18;;;;;;;2.98;34.99;96861.22;5041122;28;20021;-69
2022/03/20 08:05:23;;;;;;;7.30;5.70;;;;;;;2.82;33.92;96854.72;5037816;28;20124;-68
2022/03/20 08:07:49;;;;;;;12.30;7.80;;;;;;;2.73;34.33;96858.31;5050209;28;20125;-69
2022/03/20 08:10:14;;;;;;;9.50;6.05;;;;;;;2.82;34.16;96847.84;5040449;28;20527;-69
2022/03/20 08:12:40;;;;;;;9.88;6.28;;;;;;;2.82;34.85;96847.00;5016313;28;20503;-69
2022/03/20 08:15:06;;;;;;;8.93;6.20;;;;;;;2.99;34.28;96844.94;5034062;28;20056;-69
2022/03/20 08:17:31;;;;;;;7.50;5.18;;;;;;;2.99;33.78;96844.94;5037863;28;20474;-68
2022/03/20 08:19:57;;;;;;;7.78;5.07;;;;;;;2.86;33.62;96828.09;5035026;28;20121;-69
2022/03/20 08:22:24;;;;;;;8.57;5.80;;;;;;;2.87;33.61;96837.47;5026664;28;20033;-69
2022/03/20 08:24:49;;;;;;;34.47;12.13;;;;;;;2.90;33.25;96832.28;5040915;28;20037;-69
2022/03/20 08:27:15;;;;;;;17.55;7.93;;;;;;;2.90;32.70;96828.00;5052446;28;20068;-69
2022/03/20 08:29:40;;;;;;;6.18;4.22;;;;;;;2.66;32.16;96836.19;5053742;28;20410;-69
2022/03/20 08:32:07;;;;;;;7.43;4.40;;;;;;;2.62;33.29;96829.44;5035658;28;20415;-68
2022/03/20 08:34:32;;;;;;;13.05;8.30;;;;;;;2.56;33.92;96827.81;5053450;28;20108;-69
2022/03/20 08:36:58;;;;;;;9.73;6.65;;;;;;;2.63;33.42;96826.81;5052280;28;20033;-69
2022/03/20 08:39:23;;;;;;;10.38;7.03;;;;;;;2.55;34.44;96822.72;5052174;28;20062;-69
2022/03/20 08:41:49;;;;;;;8.85;5.57;;;;;;;2.66;33.83;96824.19;5051552;28;20025;-69
2022/03/20 08:44:15;;;;;;;7.57;5.30;;;;;;;2.82;34.10;96822.19;5035469;28;20029;-69
2022/03/20 08:46:40;;;;;;;9.80;6.07;;;;;;;3.02;33.04;96823.47;5035639;28;20087;-69
2022/03/20 08:49:07;;;;;;;12.40;7.80;;;;;;;3.10;33.28;96816.47;5035410;28;20037;-68
2022/03/20 08:51:34;;;;;;;10.20;6.32;;;;;;;3.22;32.79;96815.34;5020512;28;20025;-68
2022/03/20 08:54:01;;;;;;;8.77;5.13;;;;;;;3.10;31.79;96808.75;5039102;28;20044;-69
2022/03/20 08:56:27;;;;;;;9.35;6.05;;;;;;;2.84;32.68;96809.28;5039613;28;20107;-69
2022/03/20 08:58:52;;;;;;;7.15;4.35;;;;;;;2.92;31.89;96807.41;5042865;28;20030;-69
2022/03/20 09:01:17;;;;;;;6.78;3.95;;;;;;;3.08;30.61;96798.50;5035819;28;20029;-68
2022/03/20 09:03:44;;;;;;;7.60;4.50;;;;;;;2.97;31.20;96800.47;5040946;28;20088;-68
2022/03/20 09:06:09;;;;;;;6.75;4.50;;;;;;;2.90;32.94;96801.47;5028435;28;20033;-68
2022/03/20 09:08:35;;;;;;;7.90;4.90;;;;;;;2.94;32.83;96800.53;5050281;28;20032;-70
2022/03/20 09:11:01;;;;;;;10.15;5.85;;;;;;;3.06;32.49;96797.69;5025855;28;20030;-67
2022/03/20 09:13:27;;;;;;;7.05;4.22;;;;;;;3.06;31.41;96787.41;5041297;28;20021;-67
2022/03/20 09:18:59;;;;;;;8.30;6.32;;;;;;;3.17;31.17;96782.03;5040088;28;20499;-67
2022/03/20 09:21:22;;;;;;;6.85;4.65;;;;;;;3.27;29.85;96772.41;5039707;28;20040;-67
2022/03/20 09:23:48;;;;;;;7.22;4.70;;;;;;;3.27;30.00;96783.53;5035608;28;20033;-66
2022/03/20 09:26:14;;;;;;;9.38;5.00;;;;;;;3.38;29.96;96782.44;5036560;28;20040;-69
2022/03/20 09:28:40;;;;;;;5.90;4.00;;;;;;;3.33;30.00;96778.25;5037079;28;20255;-69
2022/03/20 09:31:07;;;;;;;5.85;3.83;;;;;;;3.41;29.15;96775.50;5033090;28;20025;-68
2022/03/20 09:33:32;;;;;;;5.68;3.75;;;;;;;3.35;29.77;96770.53;5031415;28;20063;-68
2022/03/20 09:35:58;;;;;;;7.72;4.07;;;;;;;3.46;29.60;96760.84;5014897;28;20033;-69
2022/03/20 09:38:25;;;;;;;6.68;4.55;;;;;;;3.49;30.39;96762.50;5036057;28;20025;-67
2022/03/20 09:40:50;;;;;;;7.68;4.80;;;;;;;3.48;30.30;96751.38;5031647;28;20124;-68
2022/03/20 09:43:16;;;;;;;5.90;3.80;;;;;;;3.54;30.30;96758.09;5023068;28;20116;-66
2022/03/20 09:45:41;;;;;;;5.20;3.53;;;;;;;3.42;29.97;96755.78;5017119;28;20033;-66
2022/03/20 09:48:06;;;;;;;7.22;3.83;;;;;;;3.17;30.59;96751.22;5040571;28;20025;-66
2022/03/20 09:50:32;;;;;;;7.10;4.30;;;;;;;3.05;31.83;96749.78;5012626;28;20064;-66
2022/03/20 09:52:58;;;;;;;7.68;4.60;;;;;;;3.35;30.24;96749.97;4997369;28;20033;-66
2022/03/20 09:55:24;;;;;;;7.13;4.90;;;;;;;3.20;31.70;96756.28;5031714;28;20038;-66
2022/03/20 09:57:56;;;;;;;6.57;4.50;;;;;;;3.32;31.16;96744.91;5030657;28;20029;-66
2022/03/20 10:00:22;;;;;;;5.65;4.32;;;;;;;3.35;30.59;96744.81;5014632;28;20044;-66
2022/03/20 10:02:47;;;;;;;8.73;5.90;;;;;;;3.39;31.23;96738.72;5031826;28;20029;-66
2022/03/20 10:05:19;;;;;;;6.70;4.63;;;;;;;3.35;30.48;96740.53;5030669;28;20037;-66
2022/03/20 10:07:44;;;;;;;;;;;;;;;3.39;30.73;96735.31;5031134;28;20106;-67
2022/03/20 10:10:22;;;;;;;9.75;6.05;;;;;;;3.55;31.22;96731.50;5031973;28;19967;-66
2022/03/20 10:12:51;;;;;;;7.93;4.90;;;;;;;3.56;30.53;96728.88;5014609;28;20021;-66
2022/03/20 10:15:30;;;;;;;6.97;4.97;;;;;;;3.61;30.61;96736.47;5030607;28;20060;-66
2022/03/20 10:18:08;;;;;;;7.13;4.60;;;;;;;3.78;30.31;96739.47;5031540;28;20050;-66
2022/03/20 10:20:46;;;;;;;5.35;3.88;;;;;;;3.73;29.52;96735.31;5031826;28;20514;-66
2022/03/20 10:23:41;;;;;;;5.53;4.00;;;;;;;3.48;30.43;96725.69;5014790;28;20029;-66
2022/03/20 10:26:13;;;;;;;5.55;4.07;;;;;;;3.39;30.57;96730.19;5046346;28;20053;-66
2022/03/20 10:28:40;;;;;;;6.28;4.18;;;;;;;3.61;29.66;96726.19;5030390;28;20525;-66
2022/03/20 10:31:09;;;;;;;6.20;4.20;;;;;;;3.61;29.26;96725.34;5030289;28;20029;-66
2022/03/20 10:33:38;;;;;;;5.63;3.97;;;;;;;3.58;30.45;96713.44;5013964;28;20118;-66
2022/03/20 10:36:19;;;;;;;5.57;3.80;;;;;;;3.60;30.20;96706.53;5031690;28;20041;-66
2022/03/20 10:38:46;;;;;;;6.03;4.50;;;;;;;3.78;29.30;96710.34;5030178;28;20075;-65
2022/03/20 10:41:28;;;;;;;6.95;4.85;;;;;;;3.65;29.93;96707.25;5030204;28;20462;-67
2022/03/20 10:43:56;;;;;;;9.10;5.38;;;;;;;3.61;30.23;96700.50;5015026;28;20491;-65
2022/03/20 10:46:29;;;;;;;6.90;4.22;;;;;;;3.69;29.80;96703.72;5030040;28;20065;-66
2022/03/20 10:48:56;;;;;;;8.55;5.85;;;;;;;3.80;30.84;96699.13;5013654;28;20051;-66
2022/03/20 10:51:37;;;;;;;8.98;5.50;;;;;;;4.06;29.94;96707.03;5013674;28;20407;-66
2022/03/20 10:54:13;;;;;;;6.80;4.93;;;;;;;4.25;29.94;96709.06;5030029;28;20032;-66
2022/03/20 10:56:51;;;;;;;6.75;5.05;;;;;;;4.35;29.37;96704.50;5029935;28;20446;-66
2022/03/20 10:59:16;;;;;;;9.90;5.88;;;;;;;4.33;28.96;96695.16;5031352;28;20043;-65
2022/03/20 11:01:43;;;;;;;5.55;4.40;;;;;;;4.35;28.99;96689.06;5045739;28;20422;-66
2022/03/20 11:04:10;;;;;;;19.25;11.15;;;;;;;4.40;29.94;96687.22;5050057;28;20037;-66
2022/03/20 11:06:35;;;;;;;6.72;4.20;;;;;;;4.51;28.47;96679.16;5016596;28;20036;-66
2022/03/20 11:09:04;;;;;;;6.43;4.78;;;;;;;4.43;29.34;96686.25;5050853;28;20497;-66
2022/03/20 11:11:34;;;;;;;7.85;4.65;;;;;;;4.44;28.92;96672.53;5033035;28;20040;-66
2022/03/20 11:13:59;;;;;;;8.18;5.35;;;;;;;4.44;29.08;96683.66;5049617;28;20025;-66
2022/03/20 11:16:25;;;;;;;7.72;4.93;;;;;;;4.54;28.28;96675.66;5033010;28;20040;-66
2022/03/20 11:18:52;;;;;;;6.75;4.38;;;;;;;4.45;28.39;96676.78;5016452;28;20488;-66
2022/03/20 11:21:22;;;;;;;7.70;3.97;;;;;;;4.44;27.83;96664.81;5049649;28;20410;-65
2022/03/20 11:23:48;;;;;;;5.95;4.15;;;;;;;4.34;28.16;96666.78;5033568;28;20033;-65
2022/03/20 11:26:13;;;;;;;5.93;4.10;;;;;;;4.36;27.95;96669.31;5049456;28;20462;-66
2022/03/20 11:28:43;;;;;;;6.45;4.60;;;;;;;4.33;28.75;96670.25;5049432;28;20029;-65
2022/03/20 11:31:09;;;;;;;7.05;4.82;;;;;;;4.33;28.06;96656.56;5049500;28;20041;-66
2022/03/20 11:33:34;;;;;;;6.43;4.93;;;;;;;4.52;28.39;96644.00;5032803;28;20044;-67
2022/03/20 11:36:01;;;;;;;6.78;3.92;;;;;;;4.57;28.68;96668.72;5050851;28;20140;-65
2022/03/20 11:38:27;;;;;;;5.68;3.65;;;;;;;4.34;29.04;96656.50;5049292;28;20411;-66
2022/03/20 11:41:19;;;;;;;4.97;3.80;;;;;;;4.17;29.47;96653.56;5032852;28;20033;-65
2022/03/20 11:44:06;;;;;;;5.30;3.75;;;;;;;4.13;30.00;96657.97;5049435;28;20021;-66
2022/03/20 11:46:33;;;;;;;5.65;3.83;;;;;;;4.14;29.23;96648.50;5049322;28;20033;-66
2022/03/20 11:49:13;;;;;;;6.97;3.90;;;;;;;4.10;29.14;96652.91;5050417;28;20082;-66
2022/03/20 11:51:52;;;;;;;6.63;4.45;;;;;;;4.23;29.63;96641.41;5050907;28;20040;-65
2022/03/20 11:54:17;;;;;;;8.77;5.18;;;;;;;4.30;29.85;96644.63;5050309;28;20040;-65
2022/03/20 11:56:43;;;;;;;5.75;3.67;;;;;;;4.39;28.56;96641.78;5032727;28;20025;-65
2022/03/20 11:59:43;;;;;;;6.50;3.97;;;;;;;4.34;29.20;96646.19;5049162;28;20044;-65
2022/03/20 12:02:09;;;;;;;7.13;4.05;;;;;;;4.15;29.91;96647.63;5049114;28;20046;-66
2022/03/20 12:04:39;;;;;;;6.32;3.85;;;;;;;4.14;28.73;96638.22;5015900;28;20029;-65
2022/03/20 12:07:22;;;;;;;6.43;4.57;;;;;;;4.20;28.95;96632.91;5049097;28;20033;-66
2022/03/20 12:10:06;;;;;;;6.78;4.45;;;;;;;4.48;29.31;96627.78;5049066;28;20280;-67